sensor_id;sensor_type;location;lat;lon;timestamp;temperature;humidity
15152;DHT22;7676;50.900;6.234;2022-08-03T00:04:53;26.30;99.90
15152;DHT22;7676;50.900;6.234;2022-08-03T00:09:56;26.30;99.90
15152;DHT22;7676;50.900;6.234;2022-08-03T00:14:58;26.20;99.90
15152;DHT22;7676;50.900;6.234;2022-08-03T00:20:01;26.20;99.90
15152;DHT22;7676;50.900;6.234;2022-08-03T00:25:04;26.10;99.90
15152;DHT22;7676;50.900;6.234;2022-08-03T00:30:07;26.00;99.90
15152;DHT22;7676;50.900;6.234;2022-08-03T00:35:09;26.00;99.90
15152;DHT22;7676;50.900;6.234;2022-08-03T00:40:32;26.00;99.90
15152;DHT22;7676;50.900;6.234;2022-08-03T00:45:38;25.80;99.90
15152;DHT22;7676;50.900;6.234;2022-08-03T00:50:41;25.90;99.90
15152;DHT22;7676;50.900;6.234;2022-08-03T00:55:44;26.10;99.90
15152;DHT22;7676;50.900;6.234;2022-08-03T01:00:47;26.00;99.90
15152;DHT22;7676;50.900;6.234;2022-08-03T01:06:05;25.90;99.90
15152;DHT22;7676;50.900;6.234;2022-08-03T01:16:53;25.90;99.90
15152;DHT22;7676;50.900;6.234;2022-08-03T01:27:17;25.90;99.90
15152;DHT22;7676;50.900;6.234;2022-08-03T01:32:47;25.80;99.90
15152;DHT22;7676;50.900;6.234;2022-08-03T01:38:34;25.80;99.90
15152;DHT22;7676;50.900;6.234;2022-08-03T01:43:39;25.80;99.90
15152;DHT22;7676;50.900;6.234;2022-08-03T01:49:06;25.70;99.90
15152;DHT22;7676;50.900;6.234;2022-08-03T01:54:11;25.50;99.90
15152;DHT22;7676;50.900;6.234;2022-08-03T01:59:15;25.50;99.90
15152;DHT22;7676;50.900;6.234;2022-08-03T02:04:20;25.50;99.90
15152;DHT22;7676;50.900;6.234;2022-08-03T02:09:24;25.50;99.90
15152;DHT22;7676;50.900;6.234;2022-08-03T02:14:28;25.40;99.90
15152;DHT22;7676;50.900;6.234;2022-08-03T02:19:32;25.50;99.90
15152;DHT22;7676;50.900;6.234;2022-08-03T02:24:37;25.40;99.90
15152;DHT22;7676;50.900;6.234;2022-08-03T02:29:40;25.20;99.90
15152;DHT22;7676;50.900;6.234;2022-08-03T02:34:46;25.20;99.90
15152;DHT22;7676;50.900;6.234;2022-08-03T02:39:51;25.30;99.90
15152;DHT22;7676;50.900;6.234;2022-08-03T02:44:58;25.20;99.90
15152;DHT22;7676;50.900;6.234;2022-08-03T02:50:03;25.20;99.90
15152;DHT22;7676;50.900;6.234;2022-08-03T02:55:06;25.20;99.90
15152;DHT22;7676;50.900;6.234;2022-08-03T03:00:11;25.20;99.90
15152;DHT22;7676;50.900;6.234;2022-08-03T03:05:21;25.20;99.90
15152;DHT22;7676;50.900;6.234;2022-08-03T03:10:43;25.20;99.90
15152;DHT22;7676;50.900;6.234;2022-08-03T03:15:47;25.10;99.90
15152;DHT22;7676;50.900;6.234;2022-08-03T03:20:51;25.00;99.90
15152;DHT22;7676;50.900;6.234;2022-08-03T03:25:55;25.00;99.90
15152;DHT22;7676;50.900;6.234;2022-08-03T03:31:00;24.80;99.90
15152;DHT22;7676;50.900;6.234;2022-08-03T03:36:04;24.80;99.90
15152;DHT22;7676;50.900;6.234;2022-08-03T03:41:08;24.80;99.90
15152;DHT22;7676;50.900;6.234;2022-08-03T03:46:12;24.80;99.90
15152;DHT22;7676;50.900;6.234;2022-08-03T03:51:15;24.80;99.90
15152;DHT22;7676;50.900;6.234;2022-08-03T03:56:18;24.60;99.90
15152;DHT22;7676;50.900;6.234;2022-08-03T04:01:20;24.40;99.90
15152;DHT22;7676;50.900;6.234;2022-08-03T04:06:23;24.40;99.90
15152;DHT22;7676;50.900;6.234;2022-08-03T04:11:52;24.20;99.90
15152;DHT22;7676;50.900;6.234;2022-08-03T04:17:01;24.20;99.90
15152;DHT22;7676;50.900;6.234;2022-08-03T04:22:08;24.00;99.90
15152;DHT22;7676;50.900;6.234;2022-08-03T04:27:15;24.00;99.90
15152;DHT22;7676;50.900;6.234;2022-08-03T04:32:19;24.00;99.90
15152;DHT22;7676;50.900;6.234;2022-08-03T04:37:37;24.10;99.90
15152;DHT22;7676;50.900;6.234;2022-08-03T04:42:42;24.30;99.90
15152;DHT22;7676;50.900;6.234;2022-08-03T04:47:45;24.90;99.90
15152;DHT22;7676;50.900;6.234;2022-08-03T04:52:48;25.30;99.90
15152;DHT22;7676;50.900;6.234;2022-08-03T04:57:51;25.20;99.90
15152;DHT22;7676;50.900;6.234;2022-08-03T05:02:53;25.50;99.90
15152;DHT22;7676;50.900;6.234;2022-08-03T05:07:56;25.60;99.90
15152;DHT22;7676;50.900;6.234;2022-08-03T05:13:01;26.10;99.90
15152;DHT22;7676;50.900;6.234;2022-08-03T05:18:04;26.60;99.90
15152;DHT22;7676;50.900;6.234;2022-08-03T05:23:13;27.30;99.90
15152;DHT22;7676;50.900;6.234;2022-08-03T05:28:15;27.30;99.90
15152;DHT22;7676;50.900;6.234;2022-08-03T05:33:17;27.90;99.90
15152;DHT22;7676;50.900;6.234;2022-08-03T05:38:20;28.60;99.90
15152;DHT22;7676;50.900;6.234;2022-08-03T05:43:30;29.10;99.90
15152;DHT22;7676;50.900;6.234;2022-08-03T05:48:33;29.60;99.90
15152;DHT22;7676;50.900;6.234;2022-08-03T05:53:36;29.90;99.90
15152;DHT22;7676;50.900;6.234;2022-08-03T05:58:38;30.10;99.90
15152;DHT22;7676;50.900;6.234;2022-08-03T06:03:41;30.40;99.90
15152;DHT22;7676;50.900;6.234;2022-08-03T06:08:44;30.30;99.90
15152;DHT22;7676;50.900;6.234;2022-08-03T06:13:48;30.20;99.90
15152;DHT22;7676;50.900;6.234;2022-08-03T06:18:51;30.10;99.90
15152;DHT22;7676;50.900;6.234;2022-08-03T06:23:53;31.10;99.90
15152;DHT22;7676;50.900;6.234;2022-08-03T06:28:57;31.50;99.90
15152;DHT22;7676;50.900;6.234;2022-08-03T06:34:04;31.80;99.90
15152;DHT22;7676;50.900;6.234;2022-08-03T06:39:27;32.00;99.90
15152;DHT22;7676;50.900;6.234;2022-08-03T06:44:29;31.60;99.90
15152;DHT22;7676;50.900;6.234;2022-08-03T06:49:32;32.20;99.90
15152;DHT22;7676;50.900;6.234;2022-08-03T06:54:35;32.40;99.90
15152;DHT22;7676;50.900;6.234;2022-08-03T06:59:38;32.80;99.70
15152;DHT22;7676;50.900;6.234;2022-08-03T07:05:00;33.10;98.80
15152;DHT22;7676;50.900;6.234;2022-08-03T07:10:05;33.40;97.30
15152;DHT22;7676;50.900;6.234;2022-08-03T07:15:08;33.40;97.70
15152;DHT22;7676;50.900;6.234;2022-08-03T07:20:31;33.00;97.80
15152;DHT22;7676;50.900;6.234;2022-08-03T07:25:37;33.30;97.00
15152;DHT22;7676;50.900;6.234;2022-08-03T07:30:42;33.20;96.40
15152;DHT22;7676;50.900;6.234;2022-08-03T07:35:45;32.90;96.20
15152;DHT22;7676;50.900;6.234;2022-08-03T07:40:47;33.00;96.40
15152;DHT22;7676;50.900;6.234;2022-08-03T07:45:50;32.80;96.50
15152;DHT22;7676;50.900;6.234;2022-08-03T07:50:53;32.80;95.40
15152;DHT22;7676;50.900;6.234;2022-08-03T07:55:55;32.80;95.90
15152;DHT22;7676;50.900;6.234;2022-08-03T08:00:58;32.70;95.60
15152;DHT22;7676;50.900;6.234;2022-08-03T08:06:01;32.90;95.30
15152;DHT22;7676;50.900;6.234;2022-08-03T08:11:04;32.40;94.90
15152;DHT22;7676;50.900;6.234;2022-08-03T08:16:06;32.20;95.60
15152;DHT22;7676;50.900;6.234;2022-08-03T08:21:09;32.10;94.70
15152;DHT22;7676;50.900;6.234;2022-08-03T08:26:12;32.20;95.50
15152;DHT22;7676;50.900;6.234;2022-08-03T08:31:14;31.70;94.90
15152;DHT22;7676;50.900;6.234;2022-08-03T08:36:17;31.60;95.20
15152;DHT22;7676;50.900;6.234;2022-08-03T08:41:19;32.10;95.10
15152;DHT22;7676;50.900;6.234;2022-08-03T08:46:22;32.00;95.20
15152;DHT22;7676;50.900;6.234;2022-08-03T08:51:33;32.00;95.40
15152;DHT22;7676;50.900;6.234;2022-08-03T08:57:03;31.70;95.90
15152;DHT22;7676;50.900;6.234;2022-08-03T09:02:30;32.10;94.60
15152;DHT22;7676;50.900;6.234;2022-08-03T09:07:32;32.20;93.80
15152;DHT22;7676;50.900;6.234;2022-08-03T09:12:43;32.40;94.70
15152;DHT22;7676;50.900;6.234;2022-08-03T09:17:47;32.50;95.10
15152;DHT22;7676;50.900;6.234;2022-08-03T09:28:11;32.70;94.10
15152;DHT22;7676;50.900;6.234;2022-08-03T09:33:46;32.90;94.00
15152;DHT22;7676;50.900;6.234;2022-08-03T09:39:10;32.80;94.20
15152;DHT22;7676;50.900;6.234;2022-08-03T09:44:13;32.80;93.90
15152;DHT22;7676;50.900;6.234;2022-08-03T09:49:27;33.00;94.20
15152;DHT22;7676;50.900;6.234;2022-08-03T09:54:31;33.00;93.60
15152;DHT22;7676;50.900;6.234;2022-08-03T09:59:33;33.50;93.00
15152;DHT22;7676;50.900;6.234;2022-08-03T10:04:46;33.40;93.50
15152;DHT22;7676;50.900;6.234;2022-08-03T10:09:55;33.50;91.30
15152;DHT22;7676;50.900;6.234;2022-08-03T10:14:58;33.60;91.80
15152;DHT22;7676;50.900;6.234;2022-08-03T10:20:01;33.70;92.10
15152;DHT22;7676;50.900;6.234;2022-08-03T10:25:08;33.60;89.80
15152;DHT22;7676;50.900;6.234;2022-08-03T10:30:11;34.00;90.00
15152;DHT22;7676;50.900;6.234;2022-08-03T10:35:19;33.90;90.10
15152;DHT22;7676;50.900;6.234;2022-08-03T10:40:28;34.30;90.90
15152;DHT22;7676;50.900;6.234;2022-08-03T10:45:53;34.50;90.80
15152;DHT22;7676;50.900;6.234;2022-08-03T10:50:58;34.60;86.90
15152;DHT22;7676;50.900;6.234;2022-08-03T10:56:01;34.60;87.20
15152;DHT22;7676;50.900;6.234;2022-08-03T11:01:54;34.70;86.70
15152;DHT22;7676;50.900;6.234;2022-08-03T11:07:19;34.80;89.20
15152;DHT22;7676;50.900;6.234;2022-08-03T11:12:26;35.30;89.50
15152;DHT22;7676;50.900;6.234;2022-08-03T11:17:33;35.80;85.70
15152;DHT22;7676;50.900;6.234;2022-08-03T11:22:57;35.60;84.00
15152;DHT22;7676;50.900;6.234;2022-08-03T11:28:24;35.60;84.00
15152;DHT22;7676;50.900;6.234;2022-08-03T11:33:30;35.00;81.10
15152;DHT22;7676;50.900;6.234;2022-08-03T11:38:33;35.20;81.80
15152;DHT22;7676;50.900;6.234;2022-08-03T11:48:44;36.00;84.50
15152;DHT22;7676;50.900;6.234;2022-08-03T11:53:51;36.20;80.60
15152;DHT22;7676;50.900;6.234;2022-08-03T11:58:56;36.30;82.60
15152;DHT22;7676;50.900;6.234;2022-08-03T12:04:19;36.30;79.70
15152;DHT22;7676;50.900;6.234;2022-08-03T12:09:21;36.70;80.00
15152;DHT22;7676;50.900;6.234;2022-08-03T12:14:24;36.80;76.70
15152;DHT22;7676;50.900;6.234;2022-08-03T12:19:46;36.30;79.30
15152;DHT22;7676;50.900;6.234;2022-08-03T12:24:49;36.30;75.50
15152;DHT22;7676;50.900;6.234;2022-08-03T12:29:57;36.60;80.70
15152;DHT22;7676;50.900;6.234;2022-08-03T12:35:00;36.60;78.10
15152;DHT22;7676;50.900;6.234;2022-08-03T12:40:05;36.60;75.90
15152;DHT22;7676;50.900;6.234;2022-08-03T12:45:21;36.20;78.10
15152;DHT22;7676;50.900;6.234;2022-08-03T12:50:26;36.40;78.00
15152;DHT22;7676;50.900;6.234;2022-08-03T12:55:29;36.00;77.70
15152;DHT22;7676;50.900;6.234;2022-08-03T13:00:55;36.10;77.90
15152;DHT22;7676;50.900;6.234;2022-08-03T13:05:57;35.90;77.60
15152;DHT22;7676;50.900;6.234;2022-08-03T13:16:21;34.90;75.90
15152;DHT22;7676;50.900;6.234;2022-08-03T13:21:24;36.10;78.50
15152;DHT22;7676;50.900;6.234;2022-08-03T13:26:26;36.40;74.70
15152;DHT22;7676;50.900;6.234;2022-08-03T13:31:29;36.20;76.60
15152;DHT22;7676;50.900;6.234;2022-08-03T13:36:31;36.10;74.20
15152;DHT22;7676;50.900;6.234;2022-08-03T13:41:53;36.10;76.00
15152;DHT22;7676;50.900;6.234;2022-08-03T13:46:56;35.90;73.80
15152;DHT22;7676;50.900;6.234;2022-08-03T13:51:58;36.10;73.90
15152;DHT22;7676;50.900;6.234;2022-08-03T13:57:01;36.30;77.60
15152;DHT22;7676;50.900;6.234;2022-08-03T14:02:23;36.10;74.30
15152;DHT22;7676;50.900;6.234;2022-08-03T14:07:27;36.10;74.60
15152;DHT22;7676;50.900;6.234;2022-08-03T14:12:30;35.90;73.60
15152;DHT22;7676;50.900;6.234;2022-08-03T14:17:33;36.00;75.70
15152;DHT22;7676;50.900;6.234;2022-08-03T14:22:51;35.70;74.70
15152;DHT22;7676;50.900;6.234;2022-08-03T14:27:53;35.70;72.90
15152;DHT22;7676;50.900;6.234;2022-08-03T14:32:56;35.80;74.80
15152;DHT22;7676;50.900;6.234;2022-08-03T14:38:02;35.70;71.80
15152;DHT22;7676;50.900;6.234;2022-08-03T14:43:04;35.50;75.40
15152;DHT22;7676;50.900;6.234;2022-08-03T14:48:07;35.50;76.60
15152;DHT22;7676;50.900;6.234;2022-08-03T14:53:29;35.50;72.50
15152;DHT22;7676;50.900;6.234;2022-08-03T14:58:31;35.30;75.80
15152;DHT22;7676;50.900;6.234;2022-08-03T15:03:34;34.70;73.40
15152;DHT22;7676;50.900;6.234;2022-08-03T15:08:36;35.00;74.00
15152;DHT22;7676;50.900;6.234;2022-08-03T15:13:39;35.00;74.40
15152;DHT22;7676;50.900;6.234;2022-08-03T15:18:41;35.20;75.60
15152;DHT22;7676;50.900;6.234;2022-08-03T15:23:44;35.30;73.70
15152;DHT22;7676;50.900;6.234;2022-08-03T15:28:46;35.00;73.90
15152;DHT22;7676;50.900;6.234;2022-08-03T15:33:49;35.20;72.70
15152;DHT22;7676;50.900;6.234;2022-08-03T15:38:52;35.10;72.50
15152;DHT22;7676;50.900;6.234;2022-08-03T15:43:54;34.90;73.60
15152;DHT22;7676;50.900;6.234;2022-08-03T15:48:56;35.30;74.10
15152;DHT22;7676;50.900;6.234;2022-08-03T15:53:59;34.30;72.70
15152;DHT22;7676;50.900;6.234;2022-08-03T15:59:01;34.00;73.70
15152;DHT22;7676;50.900;6.234;2022-08-03T16:04:15;33.40;74.40
15152;DHT22;7676;50.900;6.234;2022-08-03T16:09:17;33.90;74.10
15152;DHT22;7676;50.900;6.234;2022-08-03T16:14:39;35.80;76.20
15152;DHT22;7676;50.900;6.234;2022-08-03T16:19:53;34.60;75.10
15152;DHT22;7676;50.900;6.234;2022-08-03T16:24:57;34.30;73.80
15152;DHT22;7676;50.900;6.234;2022-08-03T16:29:59;34.30;73.50
15152;DHT22;7676;50.900;6.234;2022-08-03T16:35:02;33.30;75.10
15152;DHT22;7676;50.900;6.234;2022-08-03T16:40:06;33.20;75.10
15152;DHT22;7676;50.900;6.234;2022-08-03T16:45:20;33.60;76.10
15152;DHT22;7676;50.900;6.234;2022-08-03T16:50:22;33.80;74.40
15152;DHT22;7676;50.900;6.234;2022-08-03T16:55:25;33.80;75.10
15152;DHT22;7676;50.900;6.234;2022-08-03T17:00:47;33.60;75.50
15152;DHT22;7676;50.900;6.234;2022-08-03T17:05:52;33.60;75.80
15152;DHT22;7676;50.900;6.234;2022-08-03T17:11:00;33.50;76.00
15152;DHT22;7676;50.900;6.234;2022-08-03T17:16:03;33.60;75.20
15152;DHT22;7676;50.900;6.234;2022-08-03T17:21:09;32.90;76.40
15152;DHT22;7676;50.900;6.234;2022-08-03T17:26:13;32.90;77.30
15152;DHT22;7676;50.900;6.234;2022-08-03T17:31:24;32.80;78.60
15152;DHT22;7676;50.900;6.234;2022-08-03T17:36:44;32.70;78.80
15152;DHT22;7676;50.900;6.234;2022-08-03T17:42:08;32.30;78.60
15152;DHT22;7676;50.900;6.234;2022-08-03T17:47:31;32.20;79.30
15152;DHT22;7676;50.900;6.234;2022-08-03T17:52:46;32.10;79.30
15152;DHT22;7676;50.900;6.234;2022-08-03T17:57:59;32.20;80.10
15152;DHT22;7676;50.900;6.234;2022-08-03T18:03:20;32.30;79.60
15152;DHT22;7676;50.900;6.234;2022-08-03T18:08:32;32.30;80.20
15152;DHT22;7676;50.900;6.234;2022-08-03T18:13:54;32.00;80.80
15152;DHT22;7676;50.900;6.234;2022-08-03T18:19:00;31.90;82.10
15152;DHT22;7676;50.900;6.234;2022-08-03T18:24:18;32.00;81.50
15152;DHT22;7676;50.900;6.234;2022-08-03T18:29:21;32.10;81.20
15152;DHT22;7676;50.900;6.234;2022-08-03T18:34:24;32.00;82.50
15152;DHT22;7676;50.900;6.234;2022-08-03T18:39:37;31.60;82.70
15152;DHT22;7676;50.900;6.234;2022-08-03T18:44:51;31.50;84.10
15152;DHT22;7676;50.900;6.234;2022-08-03T18:50:23;31.40;85.60
15152;DHT22;7676;50.900;6.234;2022-08-03T18:55:34;31.40;86.30
15152;DHT22;7676;50.900;6.234;2022-08-03T19:01:29;31.40;86.90
15152;DHT22;7676;50.900;6.234;2022-08-03T19:07:07;31.30;86.90
15152;DHT22;7676;50.900;6.234;2022-08-03T19:12:17;31.30;86.90
15152;DHT22;7676;50.900;6.234;2022-08-03T19:17:38;31.40;87.30
15152;DHT22;7676;50.900;6.234;2022-08-03T19:22:41;31.40;87.80
15152;DHT22;7676;50.900;6.234;2022-08-03T19:27:48;31.40;87.70
15152;DHT22;7676;50.900;6.234;2022-08-03T19:32:51;31.30;87.70
15152;DHT22;7676;50.900;6.234;2022-08-03T19:37:55;31.00;88.20
15152;DHT22;7676;50.900;6.234;2022-08-03T19:43:03;31.30;88.40
15152;DHT22;7676;50.900;6.234;2022-08-03T19:48:12;31.50;88.00
15152;DHT22;7676;50.900;6.234;2022-08-03T19:53:15;31.70;88.00
15152;DHT22;7676;50.900;6.234;2022-08-03T19:58:22;31.80;88.70
15152;DHT22;7676;50.900;6.234;2022-08-03T20:03:29;31.90;88.90
15152;DHT22;7676;50.900;6.234;2022-08-03T20:08:44;31.50;88.80
15152;DHT22;7676;50.900;6.234;2022-08-03T20:13:53;31.30;89.70
15152;DHT22;7676;50.900;6.234;2022-08-03T20:18:56;31.50;89.20
15152;DHT22;7676;50.900;6.234;2022-08-03T20:24:01;31.40;87.20
15152;DHT22;7676;50.900;6.234;2022-08-03T20:29:32;31.50;88.20
15152;DHT22;7676;50.900;6.234;2022-08-03T20:34:54;31.50;88.40
15152;DHT22;7676;50.900;6.234;2022-08-03T20:39:59;31.60;89.50
15152;DHT22;7676;50.900;6.234;2022-08-03T20:45:02;31.70;89.20
15152;DHT22;7676;50.900;6.234;2022-08-03T20:50:09;31.70;89.50
15152;DHT22;7676;50.900;6.234;2022-08-03T20:55:13;31.30;89.00
15152;DHT22;7676;50.900;6.234;2022-08-03T21:00:17;31.20;89.00
15152;DHT22;7676;50.900;6.234;2022-08-03T21:05:23;31.30;89.90
15152;DHT22;7676;50.900;6.234;2022-08-03T21:10:47;31.20;89.30
15152;DHT22;7676;50.900;6.234;2022-08-03T21:15:51;31.30;89.30
15152;DHT22;7676;50.900;6.234;2022-08-03T21:21:16;31.10;90.00
15152;DHT22;7676;50.900;6.234;2022-08-03T21:26:23;30.90;90.70
15152;DHT22;7676;50.900;6.234;2022-08-03T21:31:26;30.90;90.90
15152;DHT22;7676;50.900;6.234;2022-08-03T21:36:31;30.90;91.30
15152;DHT22;7676;50.900;6.234;2022-08-03T21:41:36;30.80;91.70
15152;DHT22;7676;50.900;6.234;2022-08-03T21:46:40;30.80;92.10
15152;DHT22;7676;50.900;6.234;2022-08-03T21:51:44;30.70;92.40
15152;DHT22;7676;50.900;6.234;2022-08-03T21:56:50;30.80;92.40
15152;DHT22;7676;50.900;6.234;2022-08-03T22:01:55;30.70;92.30
15152;DHT22;7676;50.900;6.234;2022-08-03T22:07:00;30.70;92.20
15152;DHT22;7676;50.900;6.234;2022-08-03T22:12:03;30.70;92.30
15152;DHT22;7676;50.900;6.234;2022-08-03T22:17:05;30.40;92.60
15152;DHT22;7676;50.900;6.234;2022-08-03T22:22:09;29.80;93.30
15152;DHT22;7676;50.900;6.234;2022-08-03T22:27:16;29.90;93.70
15152;DHT22;7676;50.900;6.234;2022-08-03T22:32:32;30.00;93.40
15152;DHT22;7676;50.900;6.234;2022-08-03T22:37:36;30.00;93.40
15152;DHT22;7676;50.900;6.234;2022-08-03T22:42:39;29.70;93.60
15152;DHT22;7676;50.900;6.234;2022-08-03T22:47:42;29.70;94.10
15152;DHT22;7676;50.900;6.234;2022-08-03T22:52:44;29.70;94.30
15152;DHT22;7676;50.900;6.234;2022-08-03T22:57:47;29.80;94.10
15152;DHT22;7676;50.900;6.234;2022-08-03T23:02:59;29.70;94.30
15152;DHT22;7676;50.900;6.234;2022-08-03T23:08:06;29.70;94.50
15152;DHT22;7676;50.900;6.234;2022-08-03T23:13:09;29.50;94.90
15152;DHT22;7676;50.900;6.234;2022-08-03T23:18:12;29.20;95.80
15152;DHT22;7676;50.900;6.234;2022-08-03T23:23:14;28.90;96.40
15152;DHT22;7676;50.900;6.234;2022-08-03T23:28:21;28.80;97.30
15152;DHT22;7676;50.900;6.234;2022-08-03T23:33:25;28.90;97.40
15152;DHT22;7676;50.900;6.234;2022-08-03T23:38:29;28.90;97.60
15152;DHT22;7676;50.900;6.234;2022-08-03T23:43:35;28.90;97.50
15152;DHT22;7676;50.900;6.234;2022-08-03T23:48:53;28.90;97.90
15152;DHT22;7676;50.900;6.234;2022-08-03T23:59:42;28.90;98.00
